Hundvaag 1 weather for May 2001
Month no. 167
Obs.
Da.
Temp. Dew Point Precip. Wind
Speed
Wind gusts Cloud cover Press. Humidity Wind dir. Sunny OPT
01.05.2001 5,9   23,5     2 1017,2     1  
02.05.2001 6,3   0,0     1 1019,6     1  
03.05.2001 6,6   0,6     0 1013,6     1  
04.05.2001 3,9   0,0     9 1012,0     1  
05.05.2001 4,9   0,0     10 1017,1     1  
06.05.2001 7,9   0,0     10 1022,8     1  
07.05.2001 6,3   0,0     8 1024,0     1  
08.05.2001 9,8   0,0     0 1023,7     1  
09.05.2001 7,7   0,0     10 1024,0     1  
10.05.2001 14,9   0,0     8 1022,3     1  
11.05.2001 10,2   0,0     10 1021,6     1  
12.05.2001 14,7   0,0     7 1020,0     1  
13.05.2001 7,9   0,0     0 1014,8     1  
14.05.2001 7,7   0,0     0 1014,7     1  
15.05.2001 6,2   0,0     0 1010,9     1  
16.05.2001 10,2   0,9     0 1005,2        
17.05.2001 9,9   6,4     0 1005,7        
18.05.2001 9,1   0,1     0 1006,7     1  
19.05.2001 12,1   2,8     3 1014,9     1  
20.05.2001 11,5   0,3     1 1017,3        
21.05.2001 8,1   0,0     9 1020,0     1  
22.05.2001 9,1   0,0     0 1020,0     1  
23.05.2001 10,3   0,0     1 1020,0     1  
24.05.2001 6,4   0,2     10 1020,1     1  
25.05.2001 6,8   0,0     10 1020,0        
26.05.2001 15,0   0,0     0 1016,4        
27.05.2001 9,2   2,8     0 1015,5        
28.05.2001 11,3   1,3     0 1010,5        
29.05.2001 10,5   2,5     0 1006,9     1  
30.05.2001 10,6   8,2     1 1011,7        
31.05.2001 10,6   0,1     0 1004,8     1  
Avrg/Sum 9,1   49,7     3,5 1015,9     23